Terminal Aerodrome Forecast
Issued by NWS

Home | Current Version | Previous Version | Text Only | Print | Product List | Glossary On
Versions: 1 2 3 4 5 6 7 8 9 10 11 12 13 14 15 16 17 18 19 20
000
FTUS43 KIND 290335 AAA
TAFHUF
TAF AMD
KHUF 290335Z 2904/2924 10005KT 5SM BR VCTS OVC015CB
     FM290600 17004KT 5SM SHRA VCTS OVC008CB
     FM290800 08005KT 3SM SHRA VCTS OVC010CB
     FM291000 06005KT 4SM SHRA OVC015
     FM291300 08007KT 3SM SHRA OVC015=

USA.gov is the U.S. government's official web portal to all federal, state and local government web resources and services.